createdAt,value
2024-02-29T00:01:04.316Z,21.96
2024-02-29T00:03:40.947Z,22.95
2024-02-29T00:06:08.302Z,22.37
2024-02-29T00:08:45.308Z,22.14
2024-02-29T00:11:18.784Z,21.89
2024-02-29T00:13:53.680Z,21.86
2024-02-29T00:16:23.884Z,21.76
2024-02-29T00:18:51.496Z,22.57
2024-02-29T00:21:19.572Z,22.04
2024-02-29T00:23:46.746Z,22.03
2024-02-29T00:26:15.266Z,22.39
2024-02-29T00:28:43.051Z,22.23
2024-02-29T00:31:10.513Z,22.33
2024-02-29T00:33:45.630Z,22.43
2024-02-29T00:36:30.093Z,22.90
2024-02-29T00:39:05.873Z,22.04
2024-02-29T00:41:40.764Z,22.77
2024-02-29T00:44:07.836Z,22.21
2024-02-29T00:46:35.654Z,22.55
2024-02-29T00:49:02.612Z,22.95
2024-02-29T00:51:29.880Z,22.31
2024-02-29T00:53:57.312Z,22.52
2024-02-29T00:56:24.754Z,22.28
2024-02-29T00:58:51.887Z,22.44
2024-02-29T01:01:18.881Z,22.20
2024-02-29T01:03:45.918Z,22.83
2024-02-29T01:06:12.952Z,22.42
2024-02-29T01:08:40.548Z,23.26
2024-02-29T01:11:10.543Z,24.74
2024-02-29T01:13:37.941Z,24.55
2024-02-29T01:16:04.957Z,24.46
2024-02-29T01:18:31.895Z,24.21
2024-02-29T01:20:59.208Z,25.22
2024-02-29T01:23:26.693Z,24.55
2024-02-29T01:25:53.840Z,26.07
2024-02-29T01:28:22.235Z,25.59
2024-02-29T01:30:50.319Z,26.25
2024-02-29T01:33:17.545Z,25.43
2024-02-29T01:35:45.144Z,25.60
2024-02-29T01:38:13.947Z,26.65
2024-02-29T01:40:40.813Z,25.68
2024-02-29T01:43:07.850Z,26.38
2024-02-29T01:45:34.874Z,26.23
2024-02-29T01:48:02.523Z,25.33
2024-02-29T01:50:29.412Z,25.32
2024-02-29T01:52:57.287Z,24.82
2024-02-29T01:55:24.568Z,25.52
2024-02-29T01:57:56.005Z,25.60
2024-02-29T02:00:23.142Z,24.89
2024-02-29T02:02:50.078Z,25.86
2024-02-29T02:05:17.842Z,24.44
2024-02-29T02:07:47.310Z,24.51
2024-02-29T02:10:14.437Z,24.39
2024-02-29T02:12:41.716Z,24.15
2024-02-29T02:15:10.034Z,23.89
2024-02-29T02:17:37.319Z,24.76
2024-02-29T02:20:04.329Z,24.62
2024-02-29T02:22:31.650Z,24.25
2024-02-29T02:24:58.594Z,24.55
2024-02-29T02:27:25.569Z,24.56
2024-02-29T02:29:52.843Z,23.49
2024-02-29T02:32:20.126Z,23.69
2024-02-29T02:34:47.233Z,22.77
2024-02-29T02:37:14.315Z,23.65
2024-02-29T02:39:41.744Z,24.60
2024-02-29T02:42:09.074Z,24.47
2024-02-29T02:44:36.870Z,24.30
2024-02-29T02:47:05.306Z,25.17
2024-02-29T02:49:33.026Z,24.66
2024-02-29T02:52:00.996Z,25.21
2024-02-29T02:54:30.886Z,24.82
2024-02-29T02:56:58.210Z,25.29
2024-02-29T02:59:25.506Z,25.32
2024-02-29T03:01:52.818Z,24.84
2024-02-29T03:04:20.062Z,25.82
2024-02-29T03:06:49.173Z,25.67
2024-02-29T03:09:16.745Z,25.51
2024-02-29T03:11:44.137Z,25.69
2024-02-29T03:14:11.688Z,26.09
2024-02-29T03:16:38.852Z,24.54
2024-02-29T03:19:06.376Z,25.43
2024-02-29T03:21:34.044Z,25.51
2024-02-29T03:24:02.667Z,25.68
2024-02-29T03:26:30.362Z,25.85
2024-02-29T03:29:00.325Z,26.10
2024-02-29T03:31:28.298Z,26.03
2024-02-29T03:33:55.611Z,25.80
2024-02-29T03:36:23.010Z,25.83
2024-02-29T03:38:50.527Z,26.41
2024-02-29T03:41:17.693Z,25.35
2024-02-29T03:43:46.395Z,26.34
2024-02-29T03:46:19.786Z,27.13
2024-02-29T03:48:47.078Z,27.46
2024-02-29T03:51:14.229Z,26.93
2024-02-29T03:53:41.714Z,26.27
2024-02-29T03:56:09.017Z,26.01
2024-02-29T03:58:39.280Z,26.92
2024-02-29T04:01:06.534Z,27.30
2024-02-29T04:03:34.397Z,27.35
2024-02-29T04:06:01.755Z,26.89
2024-02-29T04:08:29.275Z,26.20
2024-02-29T04:10:56.929Z,26.84
2024-02-29T04:13:25.809Z,26.32
2024-02-29T04:15:55.844Z,26.40
2024-02-29T04:18:26.848Z,27.28
2024-02-29T04:20:54.738Z,26.27
2024-02-29T04:23:24.809Z,26.85
2024-02-29T04:25:51.679Z,26.75
2024-02-29T04:28:23.092Z,26.47
2024-02-29T04:30:50.374Z,25.81
2024-02-29T04:33:17.424Z,27.21
2024-02-29T04:35:44.673Z,27.70
2024-02-29T04:38:11.947Z,27.84
2024-02-29T04:40:39.024Z,26.95
2024-02-29T04:43:06.282Z,26.87
2024-02-29T04:45:33.366Z,26.81
2024-02-29T04:48:00.439Z,26.97
2024-02-29T04:50:27.692Z,26.63
2024-02-29T04:52:54.593Z,26.82
2024-02-29T04:55:21.562Z,27.15
2024-02-29T04:57:50.646Z,26.22
2024-02-29T05:00:18.056Z,26.30
2024-02-29T05:02:45.078Z,26.85
2024-02-29T05:05:12.359Z,27.37
2024-02-29T05:07:42.490Z,27.14
2024-02-29T05:10:09.741Z,26.46
2024-02-29T05:12:36.805Z,26.28
2024-02-29T05:15:03.829Z,26.11
2024-02-29T05:17:30.957Z,27.44
2024-02-29T05:19:57.970Z,27.72
2024-02-29T05:22:24.908Z,27.49
2024-02-29T05:24:52.283Z,26.17
2024-02-29T05:27:20.891Z,25.76
2024-02-29T05:29:51.653Z,25.66
2024-02-29T05:32:20.200Z,26.00
2024-02-29T05:34:47.096Z,26.47
2024-02-29T05:37:16.576Z,26.68
2024-02-29T05:39:43.526Z,27.71
2024-02-29T05:42:10.933Z,27.77
2024-02-29T05:44:38.108Z,27.61
2024-02-29T05:47:05.083Z,27.25
2024-02-29T05:49:32.249Z,28.23
2024-02-29T05:51:59.249Z,28.74
2024-02-29T05:54:26.496Z,27.98
2024-02-29T05:56:53.855Z,27.49
2024-02-29T05:59:25.777Z,27.85
2024-02-29T06:01:53.504Z,28.06
2024-02-29T06:04:20.607Z,27.93
2024-02-29T06:06:47.816Z,27.89
2024-02-29T06:09:14.706Z,27.87
2024-02-29T06:11:42.001Z,30.20
2024-02-29T06:14:09.048Z,28.81
2024-02-29T06:16:36.379Z,29.18
2024-02-29T06:19:03.510Z,28.93
2024-02-29T06:21:30.804Z,28.61
2024-02-29T06:23:57.870Z,28.60
2024-02-29T06:26:24.904Z,29.25
2024-02-29T06:28:52.993Z,28.44
2024-02-29T06:31:20.196Z,27.92
2024-02-29T06:33:48.588Z,28.39
2024-02-29T06:36:15.743Z,29.11
2024-02-29T06:38:43.064Z,28.71
2024-02-29T06:41:10.908Z,29.17
2024-02-29T06:43:38.712Z,28.72
2024-02-29T06:46:06.015Z,28.80
2024-02-29T06:48:33.476Z,28.40
2024-02-29T06:51:02.028Z,28.47
2024-02-29T06:53:29.838Z,28.40
2024-02-29T06:55:57.436Z,29.23
2024-02-29T06:58:24.805Z,30.15
2024-02-29T07:00:52.399Z,29.67
2024-02-29T07:03:20.423Z,28.94
2024-02-29T07:05:48.315Z,30.27
2024-02-29T07:08:15.982Z,29.17
2024-02-29T07:10:43.338Z,30.02
2024-02-29T07:13:11.366Z,30.17
2024-02-29T07:15:41.594Z,31.82
2024-02-29T07:18:09.115Z,31.05
2024-02-29T07:20:36.714Z,29.29
2024-02-29T07:23:05.260Z,28.14
2024-02-29T07:25:32.905Z,29.19
2024-02-29T07:28:00.177Z,31.04
2024-02-29T07:30:27.702Z,29.56
2024-02-29T07:32:55.139Z,29.39
2024-02-29T07:35:23.750Z,29.08
2024-02-29T07:37:53.828Z,28.76
2024-02-29T07:40:22.481Z,28.97
2024-02-29T07:42:50.401Z,28.51
2024-02-29T07:45:20.462Z,28.29
2024-02-29T07:47:48.961Z,29.06
2024-02-29T07:50:16.335Z,29.36
2024-02-29T07:52:43.846Z,31.65
2024-02-29T07:55:12.025Z,28.49
2024-02-29T07:57:39.497Z,28.34
2024-02-29T08:00:06.980Z,30.15
2024-02-29T08:02:34.772Z,30.59
2024-02-29T08:05:01.861Z,28.79
2024-02-29T08:07:29.448Z,28.58
2024-02-29T08:09:57.414Z,28.76
2024-02-29T08:12:31.809Z,28.84
2024-02-29T08:15:07.285Z,29.76
2024-02-29T08:17:34.263Z,30.93
2024-02-29T08:20:01.331Z,29.13
2024-02-29T08:22:28.655Z,29.12
2024-02-29T08:24:55.871Z,28.44
2024-02-29T08:27:23.187Z,28.63
2024-02-29T08:29:50.291Z,28.56
2024-02-29T08:32:17.368Z,28.02
2024-02-29T08:34:44.723Z,28.13
2024-02-29T08:37:12.035Z,28.74
2024-02-29T08:39:39.306Z,28.89
2024-02-29T08:42:06.822Z,29.94
2024-02-29T08:44:33.883Z,30.05
2024-02-29T08:47:01.520Z,28.94
2024-02-29T08:49:29.095Z,29.11
2024-02-29T08:51:56.394Z,29.65
2024-02-29T08:54:23.283Z,29.15
2024-02-29T08:56:50.370Z,29.56
2024-02-29T08:59:18.816Z,29.61
2024-02-29T09:01:46.295Z,28.89
2024-02-29T09:04:13.629Z,29.06
2024-02-29T09:06:42.062Z,30.94
2024-02-29T09:09:09.914Z,30.35
2024-02-29T09:11:37.216Z,29.14
2024-02-29T09:14:04.769Z,28.71
2024-02-29T09:16:32.897Z,28.51
2024-02-29T09:19:03.848Z,29.15
2024-02-29T09:21:31.982Z,28.94
2024-02-29T09:23:59.712Z,28.61
2024-02-29T09:26:28.500Z,29.66
2024-02-29T09:28:55.829Z,29.61
2024-02-29T09:31:23.359Z,29.68
2024-02-29T09:33:50.816Z,27.89
2024-02-29T09:36:18.589Z,28.44
2024-02-29T09:38:46.028Z,28.53
2024-02-29T09:43:45.524Z,27.89
2024-02-29T09:46:14.207Z,27.68
2024-02-29T09:48:41.530Z,32.44
2024-02-29T09:51:09.209Z,30.43
2024-02-29T09:53:36.564Z,29.25
2024-02-29T09:56:03.829Z,28.12
2024-02-29T09:58:30.962Z,28.06
2024-02-29T10:00:58.717Z,27.34
2024-02-29T10:03:26.176Z,28.74
2024-02-29T10:05:55.116Z,27.65
2024-02-29T10:08:22.474Z,28.07
2024-02-29T10:10:51.556Z,27.82
2024-02-29T10:13:20.212Z,28.05
2024-02-29T10:15:48.180Z,27.83
2024-02-29T10:18:16.226Z,28.38
2024-02-29T10:20:44.475Z,27.28
2024-02-29T10:23:11.777Z,27.96
2024-02-29T10:25:39.364Z,28.55
2024-02-29T10:28:06.957Z,28.40
2024-02-29T10:30:38.688Z,27.54
2024-02-29T10:33:05.941Z,28.38
2024-02-29T10:35:33.132Z,27.70
2024-02-29T10:38:01.120Z,29.09
2024-02-29T10:40:28.706Z,28.82
2024-02-29T10:42:56.749Z,29.31
2024-02-29T10:45:26.849Z,29.17
2024-02-29T10:47:54.653Z,27.38
2024-02-29T10:50:22.319Z,28.07
2024-02-29T10:52:49.925Z,27.03
2024-02-29T10:55:17.074Z,26.09
2024-02-29T10:57:44.693Z,26.34
2024-02-29T11:00:11.973Z,28.50
2024-02-29T11:02:39.780Z,26.77
2024-02-29T11:05:07.004Z,26.23
2024-02-29T11:07:35.386Z,25.75
2024-02-29T11:10:02.998Z,27.43
2024-02-29T11:12:30.410Z,25.38
2024-02-29T11:14:58.081Z,22.35
2024-02-29T11:17:25.385Z,19.96
2024-02-29T11:19:57.380Z,17.54
2024-02-29T11:22:25.094Z,17.62
2024-02-29T11:24:52.404Z,17.65
2024-02-29T11:27:19.706Z,17.69
2024-02-29T11:29:47.348Z,16.89
2024-02-29T11:32:15.088Z,17.39
2024-02-29T11:34:42.337Z,18.20
2024-02-29T11:37:09.737Z,18.99
2024-02-29T11:39:37.039Z,18.93
2024-02-29T11:42:04.757Z,19.35
2024-02-29T11:44:31.960Z,22.84
2024-02-29T11:46:59.441Z,20.18
2024-02-29T11:49:26.920Z,18.16
2024-02-29T11:51:54.410Z,15.98
2024-02-29T11:54:24.202Z,16.14
2024-02-29T11:56:53.134Z,17.86
2024-02-29T11:59:20.512Z,15.66
2024-02-29T12:01:50.545Z,15.84
2024-02-29T12:04:17.981Z,14.65
2024-02-29T12:06:45.534Z,16.29
2024-02-29T12:09:12.636Z,16.35
2024-02-29T12:11:40.200Z,15.20
2024-02-29T12:14:07.441Z,14.43
2024-02-29T12:16:34.684Z,14.52
2024-02-29T12:19:02.086Z,16.15
2024-02-29T12:21:29.348Z,18.47
2024-02-29T12:23:56.573Z,18.56
2024-02-29T12:26:23.562Z,18.75
2024-02-29T12:28:50.561Z,18.11
2024-02-29T12:31:17.595Z,18.47
2024-02-29T12:33:44.902Z,18.65
2024-02-29T12:36:12.332Z,18.52
2024-02-29T12:38:39.337Z,17.56
2024-02-29T12:41:06.802Z,17.69
2024-02-29T12:43:33.749Z,21.19
2024-02-29T12:46:00.830Z,21.68
2024-02-29T12:48:28.088Z,21.04
2024-02-29T12:50:56.132Z,19.93
2024-02-29T12:53:23.505Z,17.30
2024-02-29T12:55:50.738Z,16.52
2024-02-29T12:58:17.973Z,15.97
2024-02-29T13:00:46.052Z,15.64
2024-02-29T13:03:13.431Z,16.58
2024-02-29T13:05:41.282Z,15.90
2024-02-29T13:08:09.274Z,17.21
2024-02-29T13:10:37.058Z,16.58
2024-02-29T13:13:10.116Z,16.00
2024-02-29T13:15:38.407Z,18.07
2024-02-29T13:18:05.822Z,16.63
2024-02-29T13:20:33.115Z,14.86
2024-02-29T13:23:00.545Z,15.13
2024-02-29T13:25:28.631Z,15.59
2024-02-29T13:27:57.311Z,15.85
2024-02-29T13:30:27.779Z,19.94
2024-02-29T13:32:55.308Z,20.72
2024-02-29T13:35:22.947Z,19.10
2024-02-29T13:37:50.133Z,17.25
2024-02-29T13:40:17.728Z,17.57
2024-02-29T13:42:45.851Z,17.83
2024-02-29T13:45:13.388Z,18.00
2024-02-29T13:47:40.825Z,18.76
2024-02-29T13:50:08.324Z,18.85
2024-02-29T13:52:35.786Z,18.85
2024-02-29T13:55:03.085Z,18.75
2024-02-29T13:57:30.836Z,18.07
2024-02-29T13:59:58.474Z,18.20
2024-02-29T14:02:26.492Z,19.67
2024-02-29T14:04:54.039Z,19.70
2024-02-29T14:07:21.764Z,18.72
2024-02-29T14:09:49.071Z,19.90
2024-02-29T14:12:17.272Z,19.25
2024-02-29T14:14:44.500Z,19.93
2024-02-29T14:17:12.216Z,21.94
2024-02-29T14:19:39.329Z,20.88
2024-02-29T14:22:06.735Z,20.66
2024-02-29T14:24:34.240Z,19.62
2024-02-29T14:27:01.775Z,20.31
2024-02-29T14:29:31.259Z,20.45
2024-02-29T14:31:58.952Z,21.12
2024-02-29T14:34:26.131Z,22.18
2024-02-29T14:36:53.251Z,23.09
2024-02-29T14:39:20.391Z,22.65
2024-02-29T14:41:48.250Z,23.11
2024-02-29T14:44:15.901Z,22.40
2024-02-29T14:46:42.935Z,21.64
2024-02-29T14:49:11.912Z,23.08
2024-02-29T14:51:39.403Z,21.83
2024-02-29T14:54:06.638Z,21.23
2024-02-29T14:56:33.786Z,20.91
2024-02-29T14:59:00.691Z,20.00
2024-02-29T15:01:27.726Z,20.23
2024-02-29T15:03:55.597Z,20.18
2024-02-29T15:06:23.212Z,20.04
2024-02-29T15:08:51.018Z,19.95
2024-02-29T15:11:18.134Z,19.36
2024-02-29T15:13:45.470Z,20.07
2024-02-29T15:16:12.596Z,20.70
2024-02-29T15:18:39.797Z,20.25
2024-02-29T15:21:07.438Z,19.77
2024-02-29T15:23:34.940Z,19.42
2024-02-29T15:26:03.268Z,18.78
2024-02-29T15:28:30.861Z,18.38
2024-02-29T15:30:58.431Z,19.87
2024-02-29T15:33:26.029Z,19.76
2024-02-29T15:35:53.607Z,19.90
2024-02-29T15:38:21.161Z,20.29
2024-02-29T15:40:48.546Z,19.33
2024-02-29T15:43:16.221Z,19.70
2024-02-29T15:45:43.699Z,19.40
2024-02-29T15:48:12.294Z,19.77
2024-02-29T15:50:40.409Z,20.13
2024-02-29T15:53:07.648Z,19.80
2024-02-29T15:55:35.810Z,21.22
2024-02-29T15:58:03.620Z,20.30
2024-02-29T16:00:31.121Z,20.75
2024-02-29T16:02:58.744Z,19.83
2024-02-29T16:05:26.322Z,18.95
2024-02-29T16:07:55.781Z,19.84
2024-02-29T16:10:23.547Z,20.32
2024-02-29T16:12:51.177Z,19.65
2024-02-29T16:15:19.751Z,19.47
2024-02-29T16:17:47.023Z,18.88
2024-02-29T16:20:14.848Z,19.73
2024-02-29T16:22:42.506Z,19.64
2024-02-29T16:25:10.091Z,20.47
2024-02-29T16:27:38.168Z,19.73
2024-02-29T16:30:05.988Z,19.56
2024-02-29T16:32:33.496Z,19.87
2024-02-29T16:35:00.619Z,20.55
2024-02-29T16:37:27.867Z,20.30
2024-02-29T16:39:55.155Z,20.50
2024-02-29T16:42:22.918Z,20.92
2024-02-29T16:44:51.392Z,20.36
2024-02-29T16:47:19.068Z,20.12
2024-02-29T16:49:46.479Z,20.78
2024-02-29T16:52:14.089Z,20.90
2024-02-29T16:54:41.189Z,20.48
2024-02-29T16:57:08.255Z,18.29
2024-02-29T16:59:35.286Z,19.06
2024-02-29T17:02:02.352Z,19.27
2024-02-29T17:04:29.786Z,18.53
2024-02-29T17:06:56.809Z,18.91
2024-02-29T17:09:24.251Z,18.32
2024-02-29T17:11:51.641Z,18.76
2024-02-29T17:14:18.609Z,17.76
2024-02-29T17:16:45.702Z,17.55
2024-02-29T17:19:12.670Z,17.14
2024-02-29T17:21:41.721Z,17.01
2024-02-29T17:24:09.633Z,16.88
2024-02-29T17:26:36.635Z,16.71
2024-02-29T17:29:03.741Z,17.35
2024-02-29T17:31:30.943Z,19.62
2024-02-29T17:33:58.002Z,20.97
2024-02-29T17:36:24.882Z,21.43
2024-02-29T17:38:51.807Z,22.49
2024-02-29T17:41:18.799Z,19.64
2024-02-29T17:43:46.142Z,20.53
2024-02-29T17:46:13.243Z,20.16
2024-02-29T17:48:41.155Z,19.96
2024-02-29T17:51:08.570Z,19.62
2024-02-29T17:53:35.667Z,19.08
2024-02-29T17:56:03.048Z,19.24
2024-02-29T17:58:30.028Z,19.65
2024-02-29T18:00:57.153Z,19.32
2024-02-29T18:03:24.123Z,19.00
2024-02-29T18:05:51.476Z,18.77
2024-02-29T18:08:18.802Z,19.55
2024-02-29T18:10:45.914Z,19.00
2024-02-29T18:13:13.001Z,18.96
2024-02-29T18:15:40.336Z,18.67
2024-02-29T18:18:07.701Z,18.36
2024-02-29T18:20:35.057Z,18.68
2024-02-29T18:23:02.225Z,18.32
2024-02-29T18:25:29.499Z,18.62
2024-02-29T18:27:56.515Z,19.10
2024-02-29T18:30:23.528Z,18.97
2024-02-29T18:32:50.635Z,18.95
2024-02-29T18:35:23.589Z,18.93
2024-02-29T18:37:53.583Z,18.97
2024-02-29T18:40:21.031Z,18.43
2024-02-29T18:42:48.602Z,19.25
2024-02-29T18:45:15.738Z,19.14
2024-02-29T18:47:42.667Z,19.12
2024-02-29T18:50:12.211Z,19.20
2024-02-29T18:52:41.272Z,19.07
2024-02-29T18:55:08.604Z,19.10
2024-02-29T18:57:36.439Z,19.42
2024-02-29T19:00:03.649Z,19.45
2024-02-29T19:02:31.078Z,23.00
2024-02-29T19:04:58.838Z,21.53
2024-02-29T19:07:27.950Z,21.94
2024-02-29T19:09:57.589Z,21.23
2024-02-29T19:12:34.260Z,21.01
2024-02-29T19:15:02.536Z,21.05
2024-02-29T19:17:30.461Z,21.40
2024-02-29T19:20:01.330Z,20.96
2024-02-29T19:22:28.850Z,20.63
2024-02-29T19:24:56.612Z,22.00
2024-02-29T19:27:24.311Z,22.77
2024-02-29T19:29:52.592Z,21.81
2024-02-29T19:32:20.046Z,22.23
2024-02-29T19:34:47.511Z,22.33
2024-02-29T19:37:15.124Z,22.90
2024-02-29T19:39:42.716Z,23.16
2024-02-29T19:42:10.713Z,22.92
2024-02-29T19:44:39.610Z,24.35
2024-02-29T19:47:07.307Z,23.30
2024-02-29T19:49:34.605Z,24.75
2024-02-29T19:52:02.613Z,23.25
2024-02-29T19:54:30.326Z,23.30
2024-02-29T19:56:57.626Z,24.18
2024-02-29T19:59:25.181Z,24.27
2024-02-29T20:01:55.337Z,24.01
2024-02-29T20:04:26.220Z,24.82
2024-02-29T20:06:55.620Z,23.94
2024-02-29T20:09:24.244Z,23.54
2024-02-29T20:11:51.290Z,23.80
2024-02-29T20:14:18.397Z,23.56
2024-02-29T20:16:45.443Z,23.62
2024-02-29T20:19:13.888Z,23.22
2024-02-29T20:21:41.841Z,22.23
2024-02-29T20:24:09.192Z,21.33
2024-02-29T20:26:36.222Z,21.73
2024-02-29T20:29:03.603Z,21.63
2024-02-29T20:31:32.343Z,20.18
2024-02-29T20:33:59.802Z,20.39
2024-02-29T20:36:26.908Z,21.72
2024-02-29T20:38:55.268Z,22.05
2024-02-29T20:41:22.634Z,22.48
2024-02-29T20:43:49.553Z,23.12
2024-02-29T20:46:16.708Z,22.52
2024-02-29T20:48:44.090Z,23.46
2024-02-29T20:51:11.283Z,22.12
2024-02-29T20:53:38.327Z,21.39
2024-02-29T20:56:05.428Z,21.72
2024-02-29T20:58:32.781Z,22.22
2024-02-29T21:01:06.498Z,23.34
2024-02-29T21:03:33.537Z,22.74
2024-02-29T21:06:00.676Z,22.30
2024-02-29T21:08:28.198Z,22.18
2024-02-29T21:10:55.477Z,22.70
2024-02-29T21:13:32.767Z,22.04
2024-02-29T21:16:00.722Z,22.12
2024-02-29T21:18:29.216Z,21.57
2024-02-29T21:20:57.596Z,21.99
2024-02-29T21:23:24.794Z,21.31
2024-02-29T21:25:52.069Z,21.87
2024-02-29T21:28:21.749Z,22.08
2024-02-29T21:30:52.201Z,22.23
2024-02-29T21:33:22.807Z,22.54
2024-02-29T21:35:51.570Z,22.49
2024-02-29T21:38:22.449Z,21.82
2024-02-29T21:40:51.207Z,21.14
2024-02-29T21:43:18.108Z,20.91
2024-02-29T21:45:48.680Z,21.44
2024-02-29T21:48:15.811Z,21.30
2024-02-29T21:50:47.036Z,20.66
2024-02-29T21:53:15.827Z,21.21
2024-02-29T21:55:42.748Z,20.69
2024-02-29T21:58:15.176Z,20.50
2024-02-29T22:00:46.435Z,21.15
2024-02-29T22:03:13.561Z,20.95
2024-02-29T22:05:43.283Z,21.53
2024-02-29T22:08:17.273Z,21.59
2024-02-29T22:11:43.361Z,21.38
2024-02-29T22:13:56.961Z,21.34
2024-02-29T22:16:28.301Z,21.51
2024-02-29T22:22:01.067Z,23.47
2024-02-29T22:24:28.043Z,22.52
2024-02-29T22:26:57.806Z,22.26
2024-02-29T22:29:27.009Z,21.41
2024-02-29T22:31:54.277Z,21.48
2024-02-29T22:34:24.054Z,21.87
2024-02-29T22:36:51.453Z,21.29
2024-02-29T22:39:23.571Z,21.58
2024-02-29T22:41:57.545Z,20.95
2024-02-29T22:44:31.693Z,20.92
2024-02-29T22:46:58.957Z,21.14
2024-02-29T22:49:29.898Z,20.77
2024-02-29T22:51:57.664Z,20.85
2024-02-29T22:54:28.579Z,21.28
2024-02-29T22:57:01.572Z,22.13
2024-02-29T22:59:33.628Z,22.01
2024-02-29T23:02:03.924Z,21.80
2024-02-29T23:04:31.151Z,22.38
2024-02-29T23:07:01.272Z,22.18
2024-02-29T23:09:31.357Z,22.19
2024-02-29T23:11:58.594Z,22.32
2024-02-29T23:14:25.765Z,22.28
2024-02-29T23:16:57.994Z,21.67
2024-02-29T23:19:24.978Z,21.87
2024-02-29T23:21:52.076Z,21.33
2024-02-29T23:24:21.636Z,21.29
2024-02-29T23:26:48.766Z,22.14
2024-02-29T23:29:15.761Z,22.76
2024-02-29T23:31:45.446Z,22.19
2024-02-29T23:34:14.626Z,22.13
2024-02-29T23:36:41.868Z,22.16
2024-02-29T23:39:11.228Z,21.54
2024-02-29T23:41:38.141Z,21.51
2024-02-29T23:44:13.145Z,21.00
2024-02-29T23:46:53.422Z,21.50
2024-02-29T23:49:20.290Z,21.08
2024-02-29T23:51:50.522Z,22.24
2024-02-29T23:54:17.901Z,21.39
2024-02-29T23:56:45.150Z,21.08
2024-02-29T23:59:15.229Z,21.52
